createdAt,value
2023-05-21T00:02:19.880Z,9.10
2023-05-21T00:04:48.693Z,9.43
2023-05-21T00:07:16.142Z,9.77
2023-05-21T00:09:43.582Z,9.25
2023-05-21T00:12:11.062Z,8.40
2023-05-21T00:14:38.836Z,8.85
2023-05-21T00:17:06.488Z,9.52
2023-05-21T00:19:33.840Z,9.43
2023-05-21T00:22:03.547Z,9.38
2023-05-21T00:24:31.050Z,8.07
2023-05-21T00:26:58.378Z,9.05
2023-05-21T00:29:27.745Z,9.23
2023-05-21T00:31:55.824Z,8.32
2023-05-21T00:34:23.255Z,9.85
2023-05-21T00:36:50.640Z,9.13
2023-05-21T00:39:17.871Z,9.30
2023-05-21T00:41:46.631Z,8.88
2023-05-21T00:44:14.296Z,8.35
2023-05-21T00:46:41.780Z,7.50
2023-05-21T00:49:09.168Z,9.23
2023-05-21T00:51:36.728Z,8.43
2023-05-21T00:54:04.421Z,9.70
2023-05-21T00:56:32.480Z,9.48
2023-05-21T00:58:59.966Z,9.63
2023-05-21T01:01:27.754Z,9.88
2023-05-21T01:03:57.663Z,8.90
2023-05-21T01:06:25.091Z,9.88
2023-05-21T01:08:52.483Z,8.40
2023-05-21T01:11:25.164Z,9.10
2023-05-21T01:13:52.519Z,8.32
2023-05-21T01:16:20.155Z,8.88
2023-05-21T01:18:47.940Z,8.70
2023-05-21T01:21:17.462Z,8.20
2023-05-21T01:23:44.987Z,9.18
2023-05-21T01:26:12.942Z,8.55
2023-05-21T01:28:40.274Z,8.65
2023-05-21T01:31:35.953Z,8.98
2023-05-21T01:34:07.779Z,8.35
2023-05-21T01:36:42.168Z,9.20
2023-05-21T01:39:37.402Z,8.43
2023-05-21T01:42:10.147Z,8.63
2023-05-21T01:44:37.882Z,9.18
2023-05-21T01:47:05.876Z,8.07
2023-05-21T01:49:34.637Z,8.13
2023-05-21T01:52:02.704Z,8.75
2023-05-21T01:54:29.976Z,8.57
2023-05-21T01:56:57.259Z,8.68
2023-05-21T01:59:24.577Z,8.43
2023-05-21T02:01:51.912Z,7.40
2023-05-21T02:04:19.222Z,8.88
2023-05-21T02:06:46.897Z,7.25
2023-05-21T02:09:14.099Z,7.90
2023-05-21T02:11:41.366Z,8.25
2023-05-21T02:14:10.435Z,7.43
2023-05-21T02:16:38.432Z,7.15
2023-05-21T02:19:06.713Z,8.00
2023-05-21T02:21:34.057Z,7.78
2023-05-21T02:24:01.355Z,7.85
2023-05-21T02:26:29.075Z,8.32
2023-05-21T02:28:56.463Z,7.88
2023-05-21T02:31:23.768Z,7.32
2023-05-21T02:33:51.659Z,7.63
2023-05-21T02:36:19.215Z,7.65
2023-05-21T02:38:46.618Z,7.40
2023-05-21T02:41:14.365Z,6.68
2023-05-21T02:43:41.705Z,6.68
2023-05-21T02:46:09.118Z,6.85
2023-05-21T02:48:36.516Z,7.07
2023-05-21T02:51:05.275Z,6.78
2023-05-21T02:53:32.610Z,7.13
2023-05-21T02:55:59.884Z,6.60
2023-05-21T02:58:27.857Z,6.80
2023-05-21T03:00:55.274Z,8.40
2023-05-21T03:03:22.867Z,6.97
2023-05-21T03:05:50.485Z,7.00
2023-05-21T03:08:19.189Z,6.93
2023-05-21T03:10:47.031Z,7.15
2023-05-21T03:13:14.354Z,7.28
2023-05-21T03:15:41.772Z,6.78
2023-05-21T03:18:10.152Z,6.60
2023-05-21T03:20:43.482Z,7.50
2023-05-21T03:23:15.701Z,7.05
2023-05-21T03:25:45.811Z,6.82
2023-05-21T03:28:13.507Z,6.57
2023-05-21T03:30:49.807Z,8.05
2023-05-21T03:33:40.431Z,7.15
2023-05-21T03:36:22.353Z,7.20
2023-05-21T03:38:49.672Z,6.50
2023-05-21T03:41:17.064Z,6.25
2023-05-21T03:43:48.419Z,6.70
2023-05-21T03:46:15.904Z,6.45
2023-05-21T03:48:58.174Z,6.68
2023-05-21T03:51:27.401Z,6.55
2023-05-21T03:53:54.717Z,7.63
2023-05-21T03:56:22.989Z,7.38
2023-05-21T03:58:50.543Z,6.97
2023-05-21T04:01:18.184Z,7.35
2023-05-21T04:03:46.658Z,7.00
2023-05-21T04:06:15.916Z,6.70
2023-05-21T04:08:44.629Z,7.28
2023-05-21T04:11:11.968Z,8.18
2023-05-21T04:13:39.293Z,6.95
2023-05-21T04:16:09.064Z,7.40
2023-05-21T04:18:36.535Z,6.55
2023-05-21T04:21:04.206Z,6.65
2023-05-21T04:23:32.509Z,6.90
2023-05-21T04:26:02.948Z,7.68
2023-05-21T04:28:30.454Z,6.93
2023-05-21T04:30:58.661Z,6.85
2023-05-21T04:33:26.081Z,6.90
2023-05-21T04:35:53.625Z,6.70
2023-05-21T04:38:21.079Z,7.25
2023-05-21T04:40:52.230Z,7.43
2023-05-21T04:43:25.963Z,7.53
2023-05-21T04:45:54.860Z,6.15
2023-05-21T04:48:24.865Z,7.38
2023-05-21T04:50:53.566Z,6.47
2023-05-21T04:53:21.824Z,6.45
2023-05-21T04:55:49.180Z,7.25
2023-05-21T04:58:18.372Z,6.88
2023-05-21T05:00:46.893Z,6.53
2023-05-21T05:03:14.846Z,6.90
2023-05-21T05:05:43.939Z,6.38
2023-05-21T05:08:13.859Z,7.72
2023-05-21T05:10:42.887Z,7.15
2023-05-21T05:13:10.219Z,7.28
2023-05-21T05:15:38.420Z,6.75
2023-05-21T05:18:08.557Z,6.85
2023-05-21T05:20:36.168Z,6.85
2023-05-21T05:23:03.490Z,6.82
2023-05-21T05:25:30.779Z,7.03
2023-05-21T05:27:58.714Z,6.20
2023-05-21T05:30:26.012Z,7.10
2023-05-21T05:32:56.604Z,7.88
2023-05-21T05:35:24.134Z,6.80
2023-05-21T05:37:51.383Z,7.72
2023-05-21T05:40:18.690Z,6.20
2023-05-21T05:42:46.423Z,7.53
2023-05-21T05:45:16.181Z,7.38
2023-05-21T05:47:43.520Z,7.25
2023-05-21T05:50:11.264Z,7.20
2023-05-21T05:52:38.526Z,8.00
2023-05-21T05:55:08.985Z,6.75
2023-05-21T05:57:36.453Z,7.22
2023-05-21T06:00:10.597Z,8.05
2023-05-21T06:02:44.317Z,7.15
2023-05-21T06:05:11.916Z,7.13
2023-05-21T06:07:40.696Z,7.40
2023-05-21T06:10:09.116Z,7.13
2023-05-21T06:12:36.676Z,6.30
2023-05-21T06:15:05.006Z,6.50
2023-05-21T06:17:32.585Z,7.10
2023-05-21T06:20:01.117Z,6.78
2023-05-21T06:22:28.633Z,6.75
2023-05-21T06:24:56.535Z,6.70
2023-05-21T06:27:24.100Z,7.43
2023-05-21T06:29:51.821Z,7.20
2023-05-21T06:32:21.301Z,8.15
2023-05-21T06:34:48.696Z,6.65
2023-05-21T06:37:21.108Z,6.50
2023-05-21T06:39:48.506Z,7.32
2023-05-21T06:42:15.965Z,7.15
2023-05-21T06:45:02.098Z,6.78
2023-05-21T06:47:32.467Z,6.72
2023-05-21T06:49:59.989Z,7.63
2023-05-21T06:52:27.455Z,7.45
2023-05-21T06:54:54.998Z,7.97
2023-05-21T06:57:23.717Z,8.65
2023-05-21T06:59:51.054Z,7.40
2023-05-21T07:02:18.351Z,8.23
2023-05-21T07:04:45.904Z,7.53
2023-05-21T07:07:13.370Z,7.95
2023-05-21T07:09:40.735Z,7.55
2023-05-21T07:12:08.802Z,7.32
2023-05-21T07:14:36.116Z,7.57
2023-05-21T07:17:03.853Z,7.00
2023-05-21T07:19:32.355Z,6.97
2023-05-21T07:21:59.951Z,8.48
2023-05-21T07:24:27.921Z,8.13
2023-05-21T07:26:55.361Z,14.30
2023-05-21T07:29:22.954Z,9.80
2023-05-21T07:31:50.356Z,7.85
2023-05-21T07:34:17.702Z,7.82
2023-05-21T07:36:44.997Z,7.90
2023-05-21T07:39:12.511Z,7.90
2023-05-21T07:41:39.981Z,8.07
2023-05-21T07:44:08.921Z,7.15
2023-05-21T07:46:40.217Z,8.80
2023-05-21T07:49:10.712Z,8.57
2023-05-21T07:51:39.578Z,7.40
2023-05-21T07:54:07.380Z,8.50
2023-05-21T07:56:36.200Z,7.20
2023-05-21T07:59:04.827Z,7.80
2023-05-21T08:01:33.083Z,7.07
2023-05-21T08:04:05.754Z,7.65
2023-05-21T08:06:34.037Z,7.40
2023-05-21T08:09:06.110Z,7.85
2023-05-21T08:11:33.608Z,6.57
2023-05-21T08:14:01.005Z,7.65
2023-05-21T08:16:28.499Z,7.63
2023-05-21T08:18:56.012Z,7.75
2023-05-21T08:21:24.025Z,6.78
2023-05-21T08:23:54.505Z,6.82
2023-05-21T08:26:21.915Z,7.45
2023-05-21T08:28:49.241Z,8.23
2023-05-21T08:31:18.643Z,7.68
2023-05-21T08:33:53.425Z,7.57
2023-05-21T08:36:28.214Z,7.72
2023-05-21T08:39:01.505Z,7.68
2023-05-21T08:41:44.187Z,6.85
2023-05-21T08:44:12.904Z,8.10
2023-05-21T08:46:42.730Z,7.65
2023-05-21T08:49:13.575Z,7.57
2023-05-21T08:51:41.815Z,6.68
2023-05-21T08:54:09.412Z,6.93
2023-05-21T08:56:38.414Z,7.05
2023-05-21T08:59:06.004Z,7.00
2023-05-21T09:01:38.217Z,7.20
2023-05-21T09:04:20.966Z,7.45
2023-05-21T09:06:52.215Z,6.32
2023-05-21T09:09:34.192Z,7.53
2023-05-21T09:12:03.437Z,7.10
2023-05-21T09:14:31.671Z,6.53
2023-05-21T09:17:04.136Z,8.23
2023-05-21T09:19:32.337Z,7.55
2023-05-21T09:22:04.398Z,9.05
2023-05-21T09:24:36.058Z,7.53
2023-05-21T09:27:07.910Z,7.93
2023-05-21T09:29:35.507Z,7.22
2023-05-21T09:32:07.806Z,8.02
2023-05-21T09:34:37.287Z,7.88
2023-05-21T09:37:13.482Z,7.50
2023-05-21T09:39:48.629Z,8.30
2023-05-21T09:42:16.263Z,7.90
2023-05-21T09:44:44.240Z,7.50
2023-05-21T09:47:12.140Z,8.52
2023-05-21T09:49:39.488Z,8.30
2023-05-21T09:52:06.923Z,7.53
2023-05-21T09:54:35.273Z,7.45
2023-05-21T09:57:03.175Z,7.70
2023-05-21T09:59:40.527Z,8.18
2023-05-21T10:02:20.593Z,7.78
2023-05-21T10:04:52.044Z,7.68
2023-05-21T10:07:29.187Z,8.13
2023-05-21T10:09:59.172Z,8.18
2023-05-21T10:12:27.604Z,8.00
2023-05-21T10:15:01.176Z,9.02
2023-05-21T10:17:29.663Z,9.07
2023-05-21T10:19:59.371Z,8.70
2023-05-21T10:22:27.350Z,8.00
2023-05-21T10:24:54.773Z,8.55
2023-05-21T10:27:23.066Z,7.93
2023-05-21T10:29:52.008Z,8.90
2023-05-21T10:32:22.577Z,9.85
2023-05-21T10:34:52.260Z,8.38
2023-05-21T10:37:23.003Z,8.43
2023-05-21T10:39:52.961Z,8.90
2023-05-21T10:42:32.234Z,9.05
2023-05-21T10:45:16.728Z,8.50
2023-05-21T10:48:12.524Z,9.32
2023-05-21T10:51:06.940Z,12.60
2023-05-21T10:54:03.968Z,11.52
2023-05-21T10:56:44.871Z,9.57
2023-05-21T10:59:35.128Z,8.73
2023-05-21T11:02:03.774Z,9.55
2023-05-21T11:04:32.159Z,8.85
2023-05-21T11:06:59.466Z,8.98
2023-05-21T11:09:27.480Z,8.70
2023-05-21T11:11:59.091Z,8.60
2023-05-21T11:14:39.360Z,8.23
2023-05-21T11:17:15.974Z,9.93
2023-05-21T11:19:45.209Z,9.10
2023-05-21T11:22:24.528Z,8.80
2023-05-21T11:24:52.833Z,8.32
2023-05-21T11:27:43.480Z,8.07
2023-05-21T11:30:16.108Z,7.93
2023-05-21T11:33:08.130Z,8.93
2023-05-21T11:36:00.057Z,8.90
2023-05-21T11:38:33.940Z,9.07
2023-05-21T11:41:04.360Z,7.57
2023-05-21T11:43:31.796Z,8.13
2023-05-21T11:45:59.445Z,8.25
2023-05-21T11:48:28.508Z,8.82
2023-05-21T11:50:57.473Z,8.73
2023-05-21T11:53:24.825Z,9.07
2023-05-21T11:55:57.586Z,9.45
2023-05-21T11:58:25.178Z,9.13
2023-05-21T12:00:52.849Z,8.07
2023-05-21T12:03:26.887Z,8.43
2023-05-21T12:05:54.681Z,8.90
2023-05-21T12:08:25.775Z,7.90
2023-05-21T12:11:00.037Z,9.43
2023-05-21T12:13:28.372Z,8.93
2023-05-21T12:15:56.045Z,7.82
2023-05-21T12:18:23.371Z,8.30
2023-05-21T12:20:52.361Z,9.00
2023-05-21T12:23:30.334Z,8.73
2023-05-21T12:25:57.780Z,8.55
2023-05-21T12:28:25.357Z,8.38
2023-05-21T12:30:53.545Z,7.97
2023-05-21T12:33:23.131Z,8.93
2023-05-21T12:35:52.524Z,8.27
2023-05-21T12:38:19.999Z,8.18
2023-05-21T12:40:47.332Z,9.20
2023-05-21T12:43:14.745Z,7.85
2023-05-21T12:45:43.491Z,7.70
2023-05-21T12:48:11.987Z,8.77
2023-05-21T12:50:40.958Z,8.93
2023-05-21T12:53:11.379Z,8.40
2023-05-21T12:55:38.870Z,8.77
2023-05-21T12:58:08.784Z,8.57
2023-05-21T13:00:37.007Z,8.60
2023-05-21T13:03:06.231Z,8.38
2023-05-21T13:05:34.315Z,8.70
2023-05-21T13:08:01.934Z,8.25
2023-05-21T13:10:29.249Z,8.10
2023-05-21T13:12:56.592Z,8.40
2023-05-21T13:15:24.085Z,8.65
2023-05-21T13:17:52.566Z,8.52
2023-05-21T13:20:23.736Z,7.82
2023-05-21T13:22:52.247Z,8.40
2023-05-21T13:25:29.722Z,8.80
2023-05-21T13:27:57.639Z,8.48
2023-05-21T13:30:24.906Z,9.18
2023-05-21T13:32:52.635Z,8.00
2023-05-21T13:35:20.261Z,8.32
2023-05-21T13:37:47.840Z,8.18
2023-05-21T13:40:16.353Z,8.65
2023-05-21T13:42:49.248Z,8.60
2023-05-21T13:45:18.599Z,8.32
2023-05-21T13:47:47.023Z,9.40
2023-05-21T13:50:14.680Z,8.57
2023-05-21T13:52:42.181Z,8.55
2023-05-21T13:55:10.588Z,8.23
2023-05-21T13:57:38.164Z,8.88
2023-05-21T14:00:06.413Z,9.52
2023-05-21T14:02:35.193Z,9.35
2023-05-21T14:05:02.880Z,8.40
2023-05-21T14:07:30.956Z,8.93
2023-05-21T14:09:58.346Z,9.07
2023-05-21T14:12:26.707Z,7.93
2023-05-21T14:14:54.159Z,9.15
2023-05-21T14:17:21.524Z,8.23
2023-05-21T14:19:48.938Z,8.93
2023-05-21T14:22:16.265Z,8.50
2023-05-21T14:24:43.585Z,8.15
2023-05-21T14:27:12.181Z,8.98
2023-05-21T14:29:40.683Z,8.60
2023-05-21T14:32:08.317Z,8.85
2023-05-21T14:34:35.763Z,8.35
2023-05-21T14:37:03.248Z,9.05
2023-05-21T14:39:30.746Z,8.95
2023-05-21T14:41:58.209Z,8.20
2023-05-21T14:44:25.472Z,9.20
2023-05-21T14:46:52.766Z,8.98
2023-05-21T14:49:20.159Z,8.32
2023-05-21T14:51:47.776Z,9.63
2023-05-21T14:54:15.319Z,9.50
2023-05-21T14:56:42.736Z,7.97
2023-05-21T14:59:12.703Z,9.27
2023-05-21T15:01:40.274Z,9.80
2023-05-21T15:04:08.135Z,8.65
2023-05-21T15:06:35.735Z,9.63
2023-05-21T15:09:03.504Z,9.30
2023-05-21T15:11:31.073Z,8.93
2023-05-21T15:13:58.328Z,9.73
2023-05-21T15:16:25.895Z,8.93
2023-05-21T15:18:53.691Z,9.60
2023-05-21T15:21:21.102Z,8.65
2023-05-21T15:23:48.486Z,9.00
2023-05-21T15:26:18.093Z,10.18
2023-05-21T15:28:45.512Z,9.73
2023-05-21T15:31:12.820Z,9.60
2023-05-21T15:33:40.119Z,9.50
2023-05-21T15:36:07.857Z,9.52
2023-05-21T15:38:35.158Z,9.00
2023-05-21T15:41:02.642Z,9.00
2023-05-21T15:43:30.531Z,9.52
2023-05-21T15:45:58.448Z,10.38
2023-05-21T15:48:25.707Z,9.32
2023-05-21T15:50:53.296Z,9.40
2023-05-21T15:53:20.685Z,9.38
2023-05-21T15:55:48.314Z,9.32
2023-05-21T15:58:16.456Z,9.55
2023-05-21T16:00:43.980Z,10.30
2023-05-21T16:03:12.628Z,8.85
2023-05-21T16:05:40.083Z,9.10
2023-05-21T16:08:10.624Z,10.15
2023-05-21T16:10:39.978Z,9.85
2023-05-21T16:13:07.526Z,9.05
2023-05-21T16:15:35.033Z,10.27
2023-05-21T16:18:02.606Z,9.82
2023-05-21T16:20:30.890Z,9.68
2023-05-21T16:22:58.277Z,9.70
2023-05-21T16:25:25.680Z,9.32
2023-05-21T16:27:53.132Z,8.85
2023-05-21T16:30:20.981Z,9.63
2023-05-21T16:32:48.413Z,8.88
2023-05-21T16:35:15.904Z,10.80
2023-05-21T16:37:43.359Z,9.30
2023-05-21T16:40:11.026Z,10.00
2023-05-21T16:42:39.736Z,10.00
2023-05-21T16:45:07.533Z,9.23
2023-05-21T16:47:34.946Z,10.40
2023-05-21T16:50:02.350Z,10.02
2023-05-21T16:52:30.072Z,9.43
2023-05-21T16:54:57.325Z,8.93
2023-05-21T16:57:24.817Z,9.43
2023-05-21T16:59:52.228Z,10.07
2023-05-21T17:02:19.877Z,9.32
2023-05-21T17:04:47.538Z,9.23
2023-05-21T17:07:16.015Z,10.15
2023-05-21T17:09:43.350Z,10.63
2023-05-21T17:12:10.670Z,10.50
2023-05-21T17:14:39.715Z,10.57
2023-05-21T17:17:07.706Z,10.43
2023-05-21T17:19:35.161Z,10.23
2023-05-21T17:22:02.675Z,9.88
2023-05-21T17:24:33.288Z,10.93
2023-05-21T17:27:00.685Z,11.88
2023-05-21T17:29:29.284Z,13.05
2023-05-21T17:31:56.682Z,15.98
2023-05-21T17:34:29.353Z,15.70
2023-05-21T17:36:57.895Z,15.80
2023-05-21T17:39:25.849Z,18.50
2023-05-21T17:41:53.200Z,15.73
2023-05-21T17:44:21.585Z,16.35
2023-05-21T17:46:50.096Z,16.88
2023-05-21T17:49:17.709Z,15.07
2023-05-21T17:51:45.548Z,13.82
2023-05-21T17:54:12.888Z,14.45
2023-05-21T17:56:40.451Z,14.40
2023-05-21T17:59:11.089Z,14.55
2023-05-21T18:01:39.580Z,14.40
2023-05-21T18:04:12.190Z,14.90
2023-05-21T18:06:40.101Z,14.95
2023-05-21T18:09:07.987Z,15.52
2023-05-21T18:11:35.497Z,15.32
2023-05-21T18:14:03.940Z,14.82
2023-05-21T18:16:31.719Z,15.00
2023-05-21T18:19:02.132Z,15.15
2023-05-21T18:21:29.631Z,15.35
2023-05-21T18:23:59.687Z,13.73
2023-05-21T18:26:27.601Z,16.15
2023-05-21T18:28:55.599Z,16.75
2023-05-21T18:31:27.557Z,15.10
2023-05-21T18:33:55.365Z,15.18
2023-05-21T18:36:23.944Z,16.38
2023-05-21T18:38:52.263Z,14.32
2023-05-21T18:41:20.227Z,15.63
2023-05-21T18:43:48.193Z,14.60
2023-05-21T18:46:15.760Z,15.43
2023-05-21T18:48:43.358Z,13.77
2023-05-21T18:51:10.752Z,14.20
2023-05-21T18:53:39.523Z,16.20
2023-05-21T18:56:07.596Z,14.90
2023-05-21T18:58:35.911Z,16.08
2023-05-21T19:01:03.548Z,15.48
2023-05-21T19:03:32.068Z,15.95
2023-05-21T19:06:00.467Z,15.38
2023-05-21T19:08:28.291Z,15.23
2023-05-21T19:10:55.595Z,13.90
2023-05-21T19:13:23.583Z,14.65
2023-05-21T19:15:50.843Z,14.25
2023-05-21T19:18:18.703Z,15.02
2023-05-21T19:20:46.151Z,13.70
2023-05-21T19:23:14.079Z,13.68
2023-05-21T19:25:41.639Z,13.50
2023-05-21T19:28:08.984Z,12.32
2023-05-21T19:30:42.423Z,11.70
2023-05-21T19:33:09.905Z,12.10
2023-05-21T19:35:37.823Z,11.57
2023-05-21T19:38:05.678Z,12.05
2023-05-21T19:40:33.712Z,12.98
2023-05-21T19:43:01.289Z,12.77
2023-05-21T19:45:28.778Z,12.98
2023-05-21T19:47:56.794Z,13.27
2023-05-21T19:50:24.685Z,12.23
2023-05-21T19:52:52.297Z,12.52
2023-05-21T19:55:20.076Z,11.88
2023-05-21T19:57:47.791Z,12.13
2023-05-21T20:00:17.308Z,12.73
2023-05-21T20:02:46.188Z,13.07
2023-05-21T20:05:13.880Z,13.10
2023-05-21T20:07:41.462Z,12.00
2023-05-21T20:10:08.971Z,13.35
2023-05-21T20:12:36.906Z,12.75
2023-05-21T20:15:07.039Z,13.15
2023-05-21T20:17:36.980Z,11.52
2023-05-21T20:20:11.085Z,12.50
2023-05-21T20:22:39.076Z,12.32
2023-05-21T20:25:10.488Z,12.73
2023-05-21T20:27:38.922Z,12.00
2023-05-21T20:30:07.784Z,11.93
2023-05-21T20:32:35.201Z,13.02
2023-05-21T20:35:03.693Z,11.65
2023-05-21T20:37:32.758Z,12.80
2023-05-21T20:40:00.262Z,12.77
2023-05-21T20:42:33.951Z,12.65
2023-05-21T20:45:01.846Z,12.70
2023-05-21T20:47:29.866Z,12.35
2023-05-21T20:49:58.966Z,13.43
2023-05-21T20:52:26.986Z,11.45
2023-05-21T20:54:54.909Z,12.60
2023-05-21T20:57:26.226Z,12.57
2023-05-21T20:59:53.789Z,12.40
2023-05-21T21:02:21.785Z,12.10
2023-05-21T21:04:50.596Z,11.57
2023-05-21T21:07:19.270Z,13.35
2023-05-21T21:09:47.229Z,13.55
2023-05-21T21:12:25.903Z,12.68
2023-05-21T21:14:54.054Z,11.90
2023-05-21T21:17:21.465Z,12.98
2023-05-21T21:19:48.846Z,12.98
2023-05-21T21:22:16.437Z,12.95
2023-05-21T21:24:43.801Z,13.18
2023-05-21T21:27:11.110Z,15.52
2023-05-21T21:29:38.429Z,12.65
2023-05-21T21:32:06.212Z,13.73
2023-05-21T21:34:33.511Z,13.98
2023-05-21T21:37:00.819Z,15.48
2023-05-21T21:39:28.095Z,14.77
2023-05-21T21:41:55.792Z,15.88
2023-05-21T21:44:23.048Z,16.02
2023-05-21T21:46:50.383Z,16.10
2023-05-21T21:49:17.774Z,15.43
2023-05-21T21:51:45.600Z,15.32
2023-05-21T21:54:13.025Z,17.25
2023-05-21T21:56:40.595Z,15.93
2023-05-21T21:59:07.820Z,17.73
2023-05-21T22:01:35.959Z,17.70
2023-05-21T22:04:03.428Z,17.02
2023-05-21T22:06:31.413Z,18.73
2023-05-21T22:08:58.957Z,18.73
2023-05-21T22:11:28.405Z,17.35
2023-05-21T22:13:56.130Z,19.30
2023-05-21T22:16:26.099Z,19.60
2023-05-21T22:18:54.265Z,18.88
2023-05-21T22:21:26.991Z,20.85
2023-05-21T22:23:54.322Z,19.08
2023-05-21T22:26:23.045Z,20.52
2023-05-21T22:28:51.374Z,20.42
2023-05-21T22:31:18.828Z,19.25
2023-05-21T22:33:46.217Z,19.48
2023-05-21T22:36:13.532Z,19.60
2023-05-21T22:38:40.889Z,20.75
2023-05-21T22:41:08.594Z,20.63
2023-05-21T22:43:36.892Z,19.75
2023-05-21T22:46:04.362Z,19.88
2023-05-21T22:48:31.651Z,19.83
2023-05-21T22:51:01.718Z,20.70
2023-05-21T22:53:29.326Z,20.50
2023-05-21T22:55:56.695Z,20.08
2023-05-21T22:58:24.161Z,21.60
2023-05-21T23:00:51.473Z,20.90
2023-05-21T23:03:18.900Z,23.17
2023-05-21T23:05:46.356Z,22.67
2023-05-21T23:08:13.859Z,19.83
2023-05-21T23:10:41.483Z,22.55
2023-05-21T23:13:09.297Z,22.30
2023-05-21T23:15:38.756Z,22.45
2023-05-21T23:18:07.754Z,22.23
2023-05-21T23:20:35.440Z,21.13
2023-05-21T23:23:03.027Z,22.25
2023-05-21T23:25:30.883Z,22.13
2023-05-21T23:27:58.217Z,22.90
2023-05-21T23:30:25.493Z,20.55
2023-05-21T23:32:52.869Z,21.63
2023-05-21T23:35:20.138Z,23.02
2023-05-21T23:37:47.683Z,21.13
2023-05-21T23:40:15.198Z,21.80
2023-05-21T23:42:42.959Z,21.20
2023-05-21T23:45:10.700Z,20.98
2023-05-21T23:47:38.057Z,20.40
2023-05-21T23:50:06.228Z,23.02
2023-05-21T23:52:33.538Z,23.42
2023-05-21T23:55:00.891Z,23.55
2023-05-21T23:57:28.217Z,22.08
2023-05-21T23:59:55.698Z,20.55
